createdAt,value
2023-05-19T00:00:15.380Z,2.80
2023-05-19T00:03:38.019Z,2.80
2023-05-19T00:07:00.773Z,2.88
2023-05-19T00:10:23.482Z,3.00
2023-05-19T00:13:46.212Z,3.50
2023-05-19T00:17:09.017Z,2.83
2023-05-19T00:20:32.154Z,2.83
2023-05-19T00:23:55.347Z,2.97
2023-05-19T00:27:18.136Z,2.75
2023-05-19T00:30:41.029Z,2.63
2023-05-19T00:34:04.047Z,3.38
2023-05-19T00:37:27.101Z,3.30
2023-05-19T00:40:50.011Z,3.03
2023-05-19T00:44:12.725Z,2.92
2023-05-19T00:47:35.644Z,2.53
2023-05-19T00:50:58.369Z,2.67
2023-05-19T00:54:21.105Z,2.83
2023-05-19T00:57:43.891Z,3.17
2023-05-19T01:01:06.964Z,2.50
2023-05-19T01:04:29.532Z,2.60
2023-05-19T01:07:52.294Z,2.97
2023-05-19T01:11:15.024Z,2.80
2023-05-19T01:14:37.626Z,2.75
2023-05-19T01:18:00.293Z,3.00
2023-05-19T01:21:23.384Z,2.90
2023-05-19T01:24:46.116Z,2.72
2023-05-19T01:28:09.176Z,3.30
2023-05-19T01:31:32.075Z,2.40
2023-05-19T01:34:54.922Z,2.95
2023-05-19T01:38:17.538Z,3.10
2023-05-19T01:41:40.345Z,2.70
2023-05-19T01:45:03.253Z,3.13
2023-05-19T01:48:26.128Z,3.17
2023-05-19T01:51:49.046Z,3.03
2023-05-19T01:55:11.545Z,3.80
2023-05-19T01:58:34.401Z,2.78
2023-05-19T02:01:57.352Z,2.58
2023-05-19T02:05:20.124Z,2.67
2023-05-19T02:08:43.139Z,3.40
2023-05-19T02:12:06.258Z,2.75
2023-05-19T02:15:29.169Z,2.65
2023-05-19T02:18:52.123Z,2.88
2023-05-19T02:22:14.976Z,2.90
2023-05-19T02:25:37.947Z,2.72
2023-05-19T02:29:00.903Z,2.60
2023-05-19T02:32:23.878Z,2.83
2023-05-19T02:35:46.830Z,2.55
2023-05-19T02:39:09.848Z,2.75
2023-05-19T02:42:32.933Z,2.65
2023-05-19T02:45:56.053Z,2.78
2023-05-19T02:49:18.972Z,2.83
2023-05-19T02:52:41.815Z,2.60
2023-05-19T02:56:04.878Z,3.60
2023-05-19T02:59:27.948Z,2.97
2023-05-19T03:02:51.003Z,2.35
2023-05-19T03:06:13.695Z,3.05
2023-05-19T03:09:36.479Z,2.88
2023-05-19T03:12:59.357Z,3.42
2023-05-19T03:16:22.485Z,2.72
2023-05-19T03:19:45.165Z,2.97
2023-05-19T03:23:07.999Z,3.10
2023-05-19T03:26:30.856Z,2.78
2023-05-19T03:29:53.752Z,3.25
2023-05-19T03:33:16.947Z,2.92
2023-05-19T03:36:39.703Z,2.78
2023-05-19T03:40:02.650Z,2.67
2023-05-19T03:43:25.377Z,3.67
2023-05-19T03:46:48.278Z,2.65
2023-05-19T03:50:11.356Z,2.47
2023-05-19T03:53:33.992Z,2.92
2023-05-19T03:56:57.064Z,3.20
2023-05-19T04:00:19.825Z,2.83
2023-05-19T04:03:42.546Z,3.30
2023-05-19T04:07:05.508Z,3.13
2023-05-19T04:10:28.335Z,3.80
2023-05-19T04:13:51.243Z,2.88
2023-05-19T04:17:13.959Z,3.13
2023-05-19T04:20:36.699Z,3.85
2023-05-19T04:23:59.400Z,4.03
2023-05-19T04:27:22.162Z,3.53
2023-05-19T04:30:45.023Z,4.00
2023-05-19T04:34:08.137Z,3.30
2023-05-19T04:37:30.745Z,3.45
2023-05-19T04:40:53.543Z,3.00
2023-05-19T04:44:16.387Z,3.45
2023-05-19T04:47:39.131Z,3.28
2023-05-19T04:51:01.967Z,3.17
2023-05-19T04:54:24.770Z,3.40
2023-05-19T04:57:47.563Z,3.38
2023-05-19T05:01:10.456Z,3.80
2023-05-19T05:04:33.148Z,3.53
2023-05-19T05:07:55.974Z,3.67
2023-05-19T05:11:18.622Z,3.65
2023-05-19T05:14:41.902Z,3.45
2023-05-19T05:18:04.708Z,3.47
2023-05-19T05:21:27.573Z,3.83
2023-05-19T05:24:50.386Z,3.70
2023-05-19T05:28:13.271Z,4.00
2023-05-19T05:31:35.980Z,4.15
2023-05-19T05:34:58.900Z,3.72
2023-05-19T05:38:21.726Z,4.38
2023-05-19T05:41:44.618Z,4.00
2023-05-19T05:45:07.613Z,3.60
2023-05-19T05:48:30.421Z,4.80
2023-05-19T05:52:05.143Z,4.40
2023-05-19T05:55:28.828Z,3.83
2023-05-19T05:58:51.752Z,4.25
2023-05-19T06:02:14.677Z,4.68
2023-05-19T06:05:37.735Z,4.53
2023-05-19T06:09:00.374Z,4.45
2023-05-19T06:12:23.405Z,4.82
2023-05-19T06:15:46.337Z,5.20
2023-05-19T06:19:09.212Z,4.55
2023-05-19T06:22:31.966Z,4.97
2023-05-19T06:25:54.711Z,4.85
2023-05-19T06:29:17.506Z,6.20
2023-05-19T06:32:40.285Z,5.28
2023-05-19T06:36:03.149Z,5.47
2023-05-19T06:39:25.990Z,5.15
2023-05-19T06:42:48.794Z,5.20
2023-05-19T06:46:11.438Z,5.35
2023-05-19T06:49:34.433Z,5.57
2023-05-19T06:52:57.234Z,5.03
2023-05-19T06:56:20.067Z,5.13
2023-05-19T06:59:42.665Z,5.88
2023-05-19T07:03:05.382Z,5.18
2023-05-19T07:06:28.169Z,5.03
2023-05-19T07:09:51.065Z,4.47
2023-05-19T07:13:13.958Z,4.55
2023-05-19T07:16:36.792Z,4.68
2023-05-19T07:19:59.925Z,5.35
2023-05-19T07:23:22.733Z,5.15
2023-05-19T07:27:14.293Z,4.93
2023-05-19T07:30:00.588Z,6.25
2023-05-19T07:32:46.892Z,6.22
2023-05-19T07:35:33.127Z,6.30
2023-05-19T07:38:19.320Z,5.07
2023-05-19T07:41:05.694Z,5.53
2023-05-19T07:43:53.124Z,5.30
2023-05-19T07:46:39.221Z,6.45
2023-05-19T07:49:25.415Z,8.23
2023-05-19T07:52:11.871Z,6.05
2023-05-19T07:54:58.308Z,5.80
2023-05-19T07:57:44.585Z,4.95
2023-05-19T08:00:32.628Z,5.88
2023-05-19T08:03:19.161Z,5.82
2023-05-19T08:06:05.913Z,4.93
2023-05-19T08:08:52.087Z,5.72
2023-05-19T08:11:38.474Z,5.32
2023-05-19T08:14:24.701Z,5.07
2023-05-19T08:17:12.615Z,5.75
2023-05-19T08:19:58.885Z,5.53
2023-05-19T08:22:45.032Z,5.22
2023-05-19T08:25:31.579Z,5.35
2023-05-19T08:28:17.858Z,6.25
2023-05-19T08:31:04.357Z,5.97
2023-05-19T08:33:52.183Z,5.97
2023-05-19T08:36:39.120Z,4.95
2023-05-19T08:39:27.366Z,4.70
2023-05-19T08:42:14.082Z,5.10
2023-05-19T08:45:00.788Z,5.47
2023-05-19T08:47:47.434Z,5.82
2023-05-19T08:50:37.318Z,5.28
2023-05-19T08:56:21.835Z,5.88
2023-05-19T08:59:09.316Z,4.82
2023-05-19T09:01:56.536Z,5.50
2023-05-19T09:04:45.933Z,5.47
2023-05-19T09:07:35.062Z,5.78
2023-05-19T09:10:21.783Z,5.25
2023-05-19T09:13:08.243Z,4.93
2023-05-19T09:15:55.002Z,5.13
2023-05-19T09:18:41.673Z,5.35
2023-05-19T09:21:31.083Z,5.80
2023-05-19T09:24:19.150Z,5.53
2023-05-19T09:27:05.840Z,5.38
2023-05-19T09:29:52.291Z,4.95
2023-05-19T09:32:38.662Z,4.63
2023-05-19T09:35:24.933Z,6.07
2023-05-19T09:38:18.281Z,5.40
2023-05-19T09:41:07.210Z,5.72
2023-05-19T09:43:55.698Z,5.75
2023-05-19T09:46:48.514Z,5.40
2023-05-19T09:49:34.964Z,4.93
2023-05-19T09:52:21.953Z,5.95
2023-05-19T09:55:10.513Z,5.72
2023-05-19T09:57:59.927Z,5.10
2023-05-19T10:00:46.368Z,5.60
2023-05-19T10:03:32.839Z,5.00
2023-05-19T10:06:20.440Z,5.68
2023-05-19T10:09:07.644Z,5.43
2023-05-19T10:11:54.256Z,5.32
2023-05-19T10:14:42.387Z,4.95
2023-05-19T10:17:29.062Z,6.00
2023-05-19T10:20:16.344Z,4.95
2023-05-19T10:23:04.066Z,5.95
2023-05-19T10:25:51.248Z,5.30
2023-05-19T10:28:39.057Z,5.35
2023-05-19T10:31:26.768Z,5.07
2023-05-19T10:34:23.319Z,5.53
2023-05-19T10:37:14.826Z,5.43
2023-05-19T10:40:01.493Z,5.50
2023-05-19T10:42:58.603Z,4.93
2023-05-19T10:45:48.777Z,4.85
2023-05-19T10:48:37.153Z,5.15
2023-05-19T10:51:29.409Z,4.82
2023-05-19T10:54:17.082Z,5.30
2023-05-19T10:57:03.406Z,4.78
2023-05-19T10:59:49.952Z,5.55
2023-05-19T11:02:41.156Z,5.20
2023-05-19T11:05:31.199Z,4.72
2023-05-19T11:08:18.692Z,5.43
2023-05-19T11:11:13.625Z,5.53
2023-05-19T11:14:01.150Z,5.38
2023-05-19T11:16:48.486Z,5.95
2023-05-19T11:19:36.298Z,5.47
2023-05-19T11:22:26.209Z,5.38
2023-05-19T11:25:12.338Z,5.00
2023-05-19T11:27:58.839Z,5.40
2023-05-19T11:30:45.926Z,5.47
2023-05-19T11:33:33.419Z,4.80
2023-05-19T11:36:21.747Z,5.20
2023-05-19T11:39:09.418Z,4.90
2023-05-19T11:41:56.559Z,5.22
2023-05-19T11:44:42.852Z,5.38
2023-05-19T11:47:30.811Z,4.90
2023-05-19T11:50:20.303Z,5.05
2023-05-19T11:53:06.788Z,5.03
2023-05-19T11:55:54.399Z,5.22
2023-05-19T11:58:40.670Z,4.95
2023-05-19T12:01:27.565Z,4.90
2023-05-19T12:04:13.889Z,4.95
2023-05-19T12:07:00.459Z,4.93
2023-05-19T12:09:47.385Z,4.90
2023-05-19T12:12:35.901Z,4.97
2023-05-19T12:15:22.400Z,4.90
2023-05-19T12:18:08.877Z,4.72
2023-05-19T12:20:55.425Z,5.47
2023-05-19T12:23:42.401Z,4.90
2023-05-19T12:26:28.444Z,5.88
2023-05-19T12:29:16.257Z,5.43
2023-05-19T12:32:03.082Z,5.57
2023-05-19T12:34:49.577Z,4.80
2023-05-19T12:37:36.255Z,5.18
2023-05-19T12:40:22.630Z,5.22
2023-05-19T12:43:09.683Z,4.60
2023-05-19T12:45:57.442Z,5.15
2023-05-19T12:48:44.214Z,4.38
2023-05-19T12:51:30.408Z,4.85
2023-05-19T12:54:19.762Z,5.57
2023-05-19T12:57:06.709Z,4.53
2023-05-19T12:59:53.245Z,4.57
2023-05-19T13:02:54.477Z,4.75
2023-05-19T13:05:43.632Z,4.65
2023-05-19T13:08:30.102Z,4.63
2023-05-19T13:11:16.529Z,4.70
2023-05-19T13:14:03.244Z,4.63
2023-05-19T13:16:49.673Z,4.63
2023-05-19T13:19:35.977Z,3.80
2023-05-19T13:22:23.801Z,4.40
2023-05-19T13:25:10.723Z,4.45
2023-05-19T13:27:58.856Z,4.57
2023-05-19T13:30:45.326Z,3.90
2023-05-19T13:33:31.849Z,4.20
2023-05-19T13:36:18.062Z,5.15
2023-05-19T13:39:05.890Z,5.40
2023-05-19T13:41:52.248Z,5.05
2023-05-19T13:44:38.526Z,5.28
2023-05-19T13:47:24.921Z,5.72
2023-05-19T13:50:12.307Z,4.78
2023-05-19T13:52:58.496Z,4.85
2023-05-19T13:55:46.608Z,4.70
2023-05-19T13:58:33.348Z,5.03
2023-05-19T14:01:19.571Z,4.22
2023-05-19T14:04:07.062Z,5.20
2023-05-19T14:06:53.239Z,4.68
2023-05-19T14:09:39.372Z,4.45
2023-05-19T14:12:38.127Z,5.40
2023-05-19T14:15:29.744Z,6.00
2023-05-19T14:18:16.541Z,5.00
2023-05-19T14:21:02.850Z,6.53
2023-05-19T14:23:49.474Z,5.32
2023-05-19T14:26:36.341Z,5.03
2023-05-19T14:29:24.239Z,5.78
2023-05-19T14:32:10.696Z,5.53
2023-05-19T14:34:56.870Z,4.90
2023-05-19T14:37:43.269Z,9.95
2023-05-19T14:40:29.613Z,6.20
2023-05-19T14:43:15.972Z,5.55
2023-05-19T14:46:03.586Z,4.95
2023-05-19T14:48:49.850Z,4.95
2023-05-19T14:51:36.164Z,5.90
2023-05-19T14:54:22.349Z,5.53
2023-05-19T14:57:08.657Z,6.10
2023-05-19T14:59:55.026Z,5.65
2023-05-19T15:02:42.922Z,5.82
2023-05-19T15:05:29.297Z,5.57
2023-05-19T15:08:15.558Z,5.50
2023-05-19T15:11:01.820Z,6.28
2023-05-19T15:13:48.232Z,5.57
2023-05-19T15:16:34.468Z,4.65
2023-05-19T15:19:22.187Z,5.47
2023-05-19T15:22:08.654Z,6.60
2023-05-19T15:24:54.810Z,5.05
2023-05-19T15:27:41.101Z,5.45
2023-05-19T15:30:27.500Z,5.22
2023-05-19T15:33:13.817Z,5.43
2023-05-19T15:36:01.399Z,5.70
2023-05-19T15:38:47.796Z,6.55
2023-05-19T15:41:34.103Z,7.28
2023-05-19T15:44:20.603Z,5.57
2023-05-19T15:47:07.053Z,6.30
2023-05-19T15:49:53.189Z,6.10
2023-05-19T15:52:40.887Z,5.82
2023-05-19T15:55:27.234Z,6.47
2023-05-19T15:58:15.329Z,6.20
2023-05-19T16:01:02.033Z,5.70
2023-05-19T16:03:48.109Z,6.78
2023-05-19T16:06:34.232Z,6.20
2023-05-19T16:09:21.846Z,5.93
2023-05-19T16:12:08.346Z,5.78
2023-05-19T16:14:54.407Z,6.30
2023-05-19T16:17:41.179Z,6.32
2023-05-19T16:20:29.752Z,6.65
2023-05-19T16:23:16.213Z,5.55
2023-05-19T16:26:03.989Z,5.90
2023-05-19T16:28:50.561Z,6.78
2023-05-19T16:31:36.925Z,6.43
2023-05-19T16:34:23.069Z,5.50
2023-05-19T16:37:09.561Z,5.88
2023-05-19T16:39:56.186Z,5.93
2023-05-19T16:42:43.690Z,5.90
2023-05-19T16:45:30.185Z,6.40
2023-05-19T16:48:16.490Z,7.00
2023-05-19T16:51:02.808Z,7.07
2023-05-19T16:53:49.238Z,7.45
2023-05-19T16:56:35.572Z,7.03
2023-05-19T16:59:23.307Z,7.60
2023-05-19T17:02:09.912Z,7.28
2023-05-19T17:04:56.460Z,7.38
2023-05-19T17:07:42.732Z,6.90
2023-05-19T17:10:29.095Z,7.80
2023-05-19T17:13:16.149Z,7.18
2023-05-19T17:16:03.843Z,7.07
2023-05-19T17:18:50.716Z,6.93
2023-05-19T17:21:37.089Z,6.97
2023-05-19T17:24:23.419Z,7.28
2023-05-19T17:27:09.709Z,6.35
2023-05-19T17:29:56.007Z,6.45
2023-05-19T17:32:43.740Z,7.30
2023-05-19T17:35:30.109Z,7.38
2023-05-19T17:38:16.336Z,7.18
2023-05-19T17:41:04.582Z,6.95
2023-05-19T17:43:51.339Z,7.55
2023-05-19T17:46:39.518Z,7.80
2023-05-19T17:49:27.346Z,7.88
2023-05-19T17:52:13.898Z,7.15
2023-05-19T17:55:00.880Z,6.68
2023-05-19T17:57:47.398Z,6.40
2023-05-19T18:00:34.233Z,6.78
2023-05-19T18:03:21.228Z,7.45
2023-05-19T18:06:09.381Z,7.60
2023-05-19T18:08:56.749Z,8.73
2023-05-19T18:11:43.431Z,8.90
2023-05-19T18:14:29.836Z,10.73
2023-05-19T18:17:16.164Z,10.45
2023-05-19T18:20:02.575Z,8.02
2023-05-19T18:22:50.363Z,7.80
2023-05-19T18:25:36.962Z,7.05
2023-05-19T18:28:24.082Z,8.13
2023-05-19T18:31:15.728Z,7.70
2023-05-19T18:34:01.870Z,7.00
2023-05-19T18:36:48.309Z,7.05
2023-05-19T18:39:36.345Z,7.70
2023-05-19T18:42:22.738Z,7.93
2023-05-19T18:45:09.464Z,7.70
2023-05-19T18:47:56.347Z,7.85
2023-05-19T18:50:44.551Z,7.63
2023-05-19T18:53:33.764Z,8.80
2023-05-19T18:56:25.323Z,8.00
2023-05-19T18:59:12.278Z,11.32
2023-05-19T19:01:58.811Z,10.88
2023-05-19T19:04:46.287Z,10.82
2023-05-19T19:07:32.650Z,7.97
2023-05-19T19:10:19.148Z,8.13
2023-05-19T19:13:06.851Z,7.30
2023-05-19T19:15:53.252Z,8.18
2023-05-19T19:18:39.863Z,7.20
2023-05-19T19:21:26.692Z,8.38
2023-05-19T19:24:13.620Z,8.00
2023-05-19T19:27:00.035Z,7.07
2023-05-19T19:29:47.865Z,7.45
2023-05-19T19:32:34.759Z,6.60
2023-05-19T19:35:21.002Z,7.57
2023-05-19T19:38:07.497Z,8.55
2023-05-19T19:40:53.675Z,8.02
2023-05-19T19:43:40.139Z,7.10
2023-05-19T19:46:27.964Z,7.50
2023-05-19T19:49:14.679Z,7.50
2023-05-19T19:52:01.059Z,7.25
2023-05-19T19:54:48.130Z,6.50
2023-05-19T19:57:34.725Z,7.32
2023-05-19T20:00:21.522Z,7.43
2023-05-19T20:03:09.773Z,7.35
2023-05-19T20:05:56.944Z,7.18
2023-05-19T20:08:43.069Z,7.43
2023-05-19T20:11:29.459Z,7.72
2023-05-19T20:14:18.696Z,7.60
2023-05-19T20:17:05.015Z,6.57
2023-05-19T20:19:52.592Z,8.07
2023-05-19T20:22:39.985Z,6.97
2023-05-19T20:25:26.240Z,7.60
2023-05-19T20:28:12.544Z,7.88
2023-05-19T20:30:58.918Z,7.47
2023-05-19T20:33:45.148Z,7.90
2023-05-19T20:36:33.024Z,7.60
2023-05-19T20:39:19.086Z,7.60
2023-05-19T20:42:05.882Z,8.07
2023-05-19T20:44:52.275Z,8.00
2023-05-19T20:47:39.122Z,7.90
2023-05-19T20:50:25.540Z,7.15
2023-05-19T20:53:13.290Z,7.20
2023-05-19T20:55:59.615Z,6.97
2023-05-19T20:58:46.009Z,6.15
2023-05-19T21:01:32.397Z,7.35
2023-05-19T21:04:18.957Z,8.07
2023-05-19T21:07:05.333Z,8.25
2023-05-19T21:09:54.349Z,8.05
2023-05-19T21:12:40.841Z,7.90
2023-05-19T21:15:27.256Z,7.07
2023-05-19T21:18:13.447Z,8.48
2023-05-19T21:21:02.434Z,8.13
2023-05-19T21:23:48.384Z,8.02
2023-05-19T21:26:36.046Z,7.53
2023-05-19T21:29:22.283Z,7.93
2023-05-19T21:32:08.882Z,7.65
2023-05-19T21:34:54.888Z,7.20
2023-05-19T21:37:41.392Z,8.00
2023-05-19T21:40:27.820Z,8.05
2023-05-19T21:43:15.480Z,7.53
2023-05-19T21:46:01.842Z,7.05
2023-05-19T21:48:48.045Z,7.60
2023-05-19T21:51:35.750Z,7.90
2023-05-19T21:54:21.903Z,7.88
2023-05-19T21:57:08.394Z,7.28
2023-05-19T21:59:55.898Z,8.02
2023-05-19T22:02:42.311Z,8.75
2023-05-19T22:05:30.056Z,7.25
2023-05-19T22:08:16.401Z,7.75
2023-05-19T22:11:02.712Z,7.28
2023-05-19T22:13:50.095Z,7.80
2023-05-19T22:16:37.788Z,7.45
2023-05-19T22:19:24.097Z,7.40
2023-05-19T22:22:14.273Z,7.65
2023-05-19T22:25:01.088Z,8.02
2023-05-19T22:27:47.393Z,7.22
2023-05-19T22:30:33.887Z,8.23
2023-05-19T22:33:21.932Z,7.60
2023-05-19T22:36:08.419Z,7.28
2023-05-19T22:38:54.482Z,7.30
2023-05-19T22:41:40.877Z,7.47
2023-05-19T22:44:26.912Z,7.72
2023-05-19T22:47:13.974Z,7.28
2023-05-19T22:50:01.531Z,7.93
2023-05-19T22:52:47.767Z,7.85
2023-05-19T22:55:34.401Z,7.68
2023-05-19T22:58:21.091Z,7.50
2023-05-19T23:01:07.285Z,7.38
2023-05-19T23:03:53.779Z,7.32
2023-05-19T23:06:41.450Z,7.85
2023-05-19T23:09:27.471Z,6.93
2023-05-19T23:12:13.796Z,7.18
2023-05-19T23:15:00.271Z,8.02
2023-05-19T23:17:46.472Z,7.40
2023-05-19T23:20:34.240Z,6.88
2023-05-19T23:23:21.941Z,7.28
2023-05-19T23:26:08.259Z,7.97
2023-05-19T23:28:54.758Z,7.10
2023-05-19T23:31:41.290Z,6.43
2023-05-19T23:34:27.460Z,7.40
2023-05-19T23:37:13.732Z,7.22
2023-05-19T23:40:01.433Z,7.28
2023-05-19T23:42:47.695Z,6.88
2023-05-19T23:45:34.229Z,7.28
2023-05-19T23:48:20.936Z,7.07
2023-05-19T23:51:07.291Z,7.38
2023-05-19T23:53:53.533Z,6.60
2023-05-19T23:56:41.296Z,7.03
2023-05-19T23:59:27.576Z,6.88
